FW1856 Weather Reports


time (UTC)temp
C
wind
direction
speed
KPH
gust
KPH
rain 1hr
cm
rain 24hr
cm
rain mn
cm
humidity
%
barometer
mb
20211017150121 11 97 1.6 3.2 0.00 3.12 0.51 94 1004.4
20211017145121 11 97 1.6 3.2 0.00 3.12 0.51 94 1004.4
20211017144121 11 115 1.6 3.2 0.00 3.10 0.51 94 1004.5
20211017143121 11 90 1.6 3.2 0.00 3.10 0.51 94 1004.3
20211017142121 11 95 1.6 8.0 0.03 3.10 0.51 94 1004.4
20211017141121 11 80 1.6 4.8 0.03 3.10 0.51 94 1004.3
20211017140121 11 93 1.6 4.8 0.05 3.10 0.51 94 1004.5
20211017135121 11 105 3.2 8.0 0.05 3.73 0.51 94 1004.5
20211017134121 11 111 1.6 4.8 0.05 3.73 0.51 94 1004.6
20211017133121 11 103 1.6 8.0 0.08 3.71 0.46 94 1004.6
20211017132122 11 110 3.2 8.0 0.05 3.68 0.46 94 1004.6
20211017131121 11 80 1.6 4.8 0.05 3.68 0.46 94 1004.3
20211017130122 11 118 3.2 9.7 0.05 3.66 0.43 94 1004.6
20211017125121 11 114 3.2 8.0 0.08 4.29 0.43 94 1004.5
20211017124121 11 93 3.2 8.0 0.08 4.24 0.38 94 1004.5
20211017123121 11 105 1.6 8.0 0.05 4.22 0.38 94 1004.5
20211017122121 11 126 3.2 8.0 0.08 4.22 0.38 94 1004.6
20211017121121 11 127 1.6 3.2 0.13 4.22 0.38 94 1004.6
20211017120122 11 113 1.6 4.8 0.08 4.19 0.36 94 1004.7
20211017115121 11 106 3.2 9.7 0.08 4.24 0.30 94 1004.7
20211017114122 11 70 1.6 8.0 0.05 4.22 0.28 94 1004.7
20211017113122 11 94 1.6 9.7 0.05 4.22 0.28 94 1004.8
20211017112121 11 80 0.0 3.2 0.05 4.19 0.25 94 1004.9
20211017111122 11 14 0.0 4.8 0.03 4.17 0.25 93 1005.1
20211017110121 11 315 1.6 4.8 0.03 4.17 0.25 94 1005.1
20211017105121 11 297 1.6 4.8 0.00 4.17 0.23 94 1005.3
20211017104121 11 288 0.0 3.2 0.00 4.17 0.23 93 1005.4
20211017103121 11 344 0.0 4.8 0.00 4.17 0.23 94 1005.5
20211017102122 11 326 1.6 4.8 0.00 4.14 0.18 94 1005.6
20211017101121 11 360 0.0 3.2 0.00 4.14 0.18 94 1005.7
20211016230121 13 91 3.2 9.7 0.03 2.24 1.73 91 1009.1
20211016225121 13 95 3.2 9.7 0.00 2.36 1.73 92 1009.3
20211016224120 12 88 3.2 9.7 0.00 2.36 1.70 92 1009.4
20211016223121 12 78 1.6 8.0 0.00 2.36 1.70 92 1009.4
20211016222121 12 85 3.2 9.7 0.00 2.36 1.70 92 1009.3
20211016221121 12 85 3.2 16.1 0.00 2.36 1.70 92 1009.4
20211016220121 12 90 3.2 17.7 0.00 2.36 1.70 93 1009.7
20211016215122 12 46 3.2 9.7 0.00 2.77 1.70 92 1009.8
20211016214122 12 52 1.6 9.7 0.03 2.77 1.70 93 1009.8
20211016213121 12 100 3.2 17.7 0.08 2.77 1.70 93 1010.0
20211016212121 12 96 4.8 22.5 0.13 2.77 1.70 93 1010.0
20211016211121 12 108 6.4 25.7 0.18 2.77 1.70 93 1010.2
20211016210122 12 97 4.8 20.9 0.18 2.77 1.70 93 1010.4
20211016205120 12 90 4.8 17.7 0.18 3.05 1.68 93 1010.7
20211016204121 12 90 3.2 16.1 0.23 3.02 1.63 93 1010.9
20211016203121 12 87 3.2 16.1 0.18 2.95 1.57 93 1011.2
20211016202122 12 65 3.2 16.1 0.13 2.92 1.57 93 1011.1
20211016201121 12 98 1.6 8.0 0.08 2.87 1.52 93 1011.3
20211016200121 12 84 1.6 3.2 0.05 2.84 1.47 93 1011.3
20211016195121 12 89 1.6 9.7 0.03 3.17 1.45 93 1011.2
20211016194121 12 91 1.6 3.2 0.00 3.15 1.42 93 1011.3